Ana Sayfa
METAR-TAF:

METAR-TAF

Havaalanları :

Maun, Botsvana

Enlem: 19-59S, Boylam: 023-25E, yükseklik: 945 m

Güncel hava durumu gözlemi

Rapor saat 05:00 UTC de 1 saat ve 7 dakika önce yapıldı.
Rüzgar kuzeydan 5 kt
Sıcaklık 24°C
Nem 61%
Basınç 1009 hPa
Görüş mesafesi 10 km veya daha fazla
1500 m altında bulut yok ve kümülonimbus yok

METAR: FBMN 170500Z 36005KT CAVOK 24/16 Q1009

Saat: 08:07 (06:07 UTC)

Tahmin

Rapor saat 03:00 UTC de 3 saat ve 7 dakika önce yapıldı.
Ayın 17'si saat 06 UTC'den ayın 17'si saat 15 UTC'ye kadar geçerli Tahmin
Rüzgar batı/kuzeybatıdan 5 kt
Görüş mesafesi 10 km veya daha fazla
1500 m altında bulut yok ve kümülonimbus yok

TAF: FBMN 170300Z 1706/1715 30005KT CAVOK

4.000'den fazla havaalanı için hava durumu gözlemleri ve tahminleri (METAR ve TAF raporları).

Kullanılabilir istasyonlar harita üzerinde sarı ve kırmızı noktalarla gösterilir.

İstasyonun adını görmek için fareyi noktanın üzerinde gezdirin.

Sonrasında hava gözlem ve tahminlerini görmek için tıklayın.

Haritayı değiştirmek için: yaklaştırmak için siyah artı işaretli yeşil düğmeye ve uzaklaştırmak için de eksi işaretli düğmeye hızla tıklayın; bitişik haritalar için yeşil okları kullanın.


METAR-TAF: